Time;durP1;ratioP1;P1;durP2;ratioP2;P2;SDS_P1;SDS_P2;PMS_P1;PMS_P2;Temp;Humidity;BMP_temperature;BMP_pressure;BME280_temperature;BME280_humidity;BME280_pressure;Samples;Min_cycle;Max_cycle;Signal;HPM_P1;HPM_P2
2021/10/16 00:01:11;;;;;;;0.68;0.50;;;;;;;6.57;85.11;92930.75;5091283;28;20031;-41
2021/10/16 00:03:37;;;;;;;1.47;0.50;;;;;;;6.60;84.67;92939.91;5091372;28;20024;-41
2021/10/16 00:06:03;;;;;;;1.15;0.63;;;;;;;6.61;84.85;92933.88;5091366;28;20012;-41
2021/10/16 00:08:28;;;;;;;1.00;0.95;;;;;;;6.40;85.07;92913.22;5091521;28;20023;-40
2021/10/16 00:10:54;;;;;;;1.08;0.93;;;;;;;6.55;85.50;92932.53;5091306;28;20027;-40
2021/10/16 00:13:20;;;;;;;1.35;1.15;;;;;;;6.57;85.79;92930.75;5091162;28;20039;-40
2021/10/16 00:15:45;;;;;;;2.10;1.27;;;;;;;6.60;84.83;92926.94;5091241;28;20055;-40
2021/10/16 00:18:11;;;;;;;2.00;1.30;;;;;;;6.57;84.87;92917.03;5091428;28;20032;-40
2021/10/16 00:20:36;;;;;;;1.13;1.00;;;;;;;6.55;85.33;92916.09;5090948;28;20085;-40
2021/10/16 00:23:02;;;;;;;1.92;0.98;;;;;;;6.62;85.14;92915.44;5091026;28;20020;-40
2021/10/16 00:25:27;;;;;;;3.72;1.42;;;;;;;6.56;85.21;92914.81;5091270;28;20019;-39
2021/10/16 00:27:53;;;;;;;0.80;0.80;;;;;;;6.51;85.48;92915.69;5091016;28;20024;-39
2021/10/16 00:30:18;;;;;;;1.05;0.75;;;;;;;6.53;85.67;92913.16;5091226;28;20028;-39
2021/10/16 00:32:44;;;;;;;1.15;0.80;;;;;;;6.37;85.93;92887.59;5090838;28;20458;-39
2021/10/16 00:35:09;;;;;;;1.17;0.60;;;;;;;6.50;85.57;92901.25;5089399;28;20069;-39
2021/10/16 00:37:34;;;;;;;0.70;0.70;;;;;;;6.50;85.43;92901.25;5090766;28;20020;-39
2021/10/16 00:40:00;;;;;;;1.02;0.95;;;;;;;6.51;85.99;92899.97;5090683;28;20020;-40
2021/10/16 00:42:25;;;;;;;1.60;1.27;;;;;;;6.49;85.82;92896.28;5090762;28;20028;-40
2021/10/16 00:44:51;;;;;;;1.42;1.10;;;;;;;6.47;85.38;92890.63;5095058;28;20106;-40
2021/10/16 00:47:16;;;;;;;2.50;1.15;;;;;;;6.47;85.96;92898.84;5089473;28;20024;-41
2021/10/16 00:49:42;;;;;;;1.58;1.10;;;;;;;6.47;86.14;92896.84;5090591;28;20036;-41
2021/10/16 00:52:08;;;;;;;2.03;1.55;;;;;;;6.50;86.50;92903.25;5090554;28;20417;-41
2021/10/16 00:54:33;;;;;;;1.20;0.93;;;;;;;6.58;86.36;92898.56;5090062;28;20020;-39
2021/10/16 00:57:00;;;;;;;3.33;1.10;;;;;;;6.60;86.09;92896.78;5090741;28;20028;-40
2021/10/16 00:59:28;;;;;;;0.82;0.77;;;;;;;6.66;85.89;92899.34;5090406;28;20026;-41
2021/10/16 01:01:54;;;;;;;1.60;1.20;;;;;;;6.75;86.03;92893.41;5090581;28;20409;-41
2021/10/16 01:04:19;;;;;;;2.28;1.50;;;;;;;6.77;86.36;92888.84;5090388;28;20032;-41
2021/10/16 01:06:45;;;;;;;1.70;1.23;;;;;;;6.77;86.02;92888.84;5090279;28;20028;-42
2021/10/16 01:09:11;;;;;;;2.95;0.90;;;;;;;6.73;85.45;92882.22;5098353;28;20032;-39
2021/10/16 01:11:36;;;;;;;0.90;0.65;;;;;;;6.75;85.15;92885.16;5098097;28;20099;-40
2021/10/16 01:14:07;;;;;;;0.50;0.50;;;;;;;6.77;85.28;92885.38;5101022;28;20472;-39
2021/10/16 01:16:34;;;;;;;0.57;0.57;;;;;;;6.79;84.90;92886.31;5101186;28;20028;-40
2021/10/16 01:19:00;;;;;;;0.65;0.50;;;;;;;6.81;85.02;92894.72;5099185;28;20020;-40
2021/10/16 01:21:27;;;;;;;0.50;0.50;;;;;;;6.78;84.70;92887.56;5100352;28;20023;-40
2021/10/16 01:23:53;;;;;;;0.70;0.52;;;;;;;6.81;84.75;92883.00;5097028;28;20012;-40
2021/10/16 01:26:19;;;;;;;0.82;0.60;;;;;;;6.81;85.22;92894.72;5101130;28;20484;-40
2021/10/16 01:28:44;;;;;;;1.33;1.20;;;;;;;6.77;85.55;92894.34;5102491;28;20038;-40
2021/10/16 01:31:10;;;;;;;1.65;1.17;;;;;;;6.78;86.00;92897.81;5103157;28;20095;-40
2021/10/16 01:33:35;;;;;;;0.63;0.60;;;;;;;6.80;85.46;92889.75;5105915;28;20025;-41
2021/10/16 01:36:03;;;;;;;2.28;0.93;;;;;;;6.86;85.10;92888.34;5110567;28;20023;-43
2021/10/16 01:38:29;;;;;;;30.80;17.42;;;;;;;6.98;84.85;92885.31;5110604;28;20038;-41
2021/10/16 01:40:54;;;;;;;6.93;4.65;;;;;;;6.96;84.54;92888.59;5110209;28;20032;-40
2021/10/16 01:43:20;;;;;;;10.82;7.95;;;;;;;7.00;85.09;92886.25;5110343;28;20036;-40
2021/10/16 01:45:46;;;;;;;12.73;7.55;;;;;;;6.96;84.94;92885.88;5100699;28;20032;-41
2021/10/16 01:48:11;;;;;;;2.63;1.95;;;;;;;6.96;85.32;92888.59;5089812;28;20048;-42
2021/10/16 01:50:39;;;;;;;1.70;1.33;;;;;;;6.93;85.66;92886.94;5089867;28;20024;-41
2021/10/16 01:53:09;;;;;;;0.52;0.52;;;;;;;6.92;85.69;92882.72;5090249;28;20081;-40
2021/10/16 01:55:35;;;;;;;1.02;0.60;;;;;;;6.92;86.17;92892.97;5090195;28;20032;-40
2021/10/16 01:58:07;;;;;;;11.25;5.65;;;;;;;6.84;86.72;92896.38;5089814;28;20542;-40
2021/10/16 02:00:33;;;;;;;9.63;6.47;;;;;;;6.88;86.21;92896.81;5090121;28;20532;-40
2021/10/16 02:02:59;;;;;;;2.85;1.70;;;;;;;6.89;86.15;92898.25;5090112;28;20027;-40
2021/10/16 02:05:25;;;;;;;1.40;1.23;;;;;;;6.88;86.34;92896.06;5090923;28;20051;-40
2021/10/16 02:07:50;;;;;;;3.72;1.20;;;;;;;6.73;86.72;92888.47;5093616;28;20031;-40
2021/10/16 02:10:16;;;;;;;3.55;2.72;;;;;;;6.80;87.17;92892.50;5093899;28;20024;-40
2021/10/16 02:12:42;;;;;;;4.70;3.33;;;;;;;6.78;87.27;92893.06;5093831;28;20107;-40
2021/10/16 02:15:07;;;;;;;3.50;1.13;;;;;;;6.85;87.70;92910.84;5093435;28;20024;-40
2021/10/16 02:17:33;;;;;;;0.88;0.80;;;;;;;6.87;87.41;92903.56;5093817;28;20047;-40
2021/10/16 02:19:58;;;;;;;0.82;0.55;;;;;;;6.84;86.59;92904.63;5093283;28;20035;-40
2021/10/16 02:22:24;;;;;;;1.88;1.60;;;;;;;6.67;87.10;92879.63;5093386;28;20032;-40
2021/10/16 02:24:49;;;;;;;3.72;2.80;;;;;;;6.88;87.39;92898.81;5093281;28;20024;-40
2021/10/16 02:27:14;;;;;;;2.92;2.60;;;;;;;6.95;87.41;92898.13;5093238;28;20047;-40
2021/10/16 02:29:40;;;;;;;2.70;1.75;;;;;;;7.04;87.03;92897.63;5093486;28;20028;-40
2021/10/16 02:32:06;;;;;;;3.85;3.45;;;;;;;7.14;86.52;92886.91;5093425;28;20020;-40
2021/10/16 02:34:32;;;;;;;8.13;6.38;;;;;;;7.14;86.22;92893.13;5093475;28;20020;-40
2021/10/16 02:36:58;;;;;;;5.03;4.25;;;;;;;7.15;86.32;92891.84;5094605;28;20386;-39
2021/10/16 02:39:23;;;;;;;2.15;1.55;;;;;;;7.14;85.73;92893.13;5113739;28;20093;-40
2021/10/16 02:41:49;;;;;;;3.33;3.03;;;;;;;7.23;85.55;92895.38;5113585;28;20416;-40
2021/10/16 02:44:14;;;;;;;1.10;0.80;;;;;;;7.15;85.58;92897.31;5113605;28;20023;-41
2021/10/16 02:46:40;;;;;;;1.60;1.25;;;;;;;7.18;85.58;92890.78;5097625;28;20020;-41
2021/10/16 02:49:05;;;;;;;1.05;0.95;;;;;;;7.27;85.46;92904.00;5092739;28;20044;-42
2021/10/16 02:51:30;;;;;;;2.95;2.17;;;;;;;7.21;85.55;92892.41;5092787;28;20031;-41
2021/10/16 02:53:56;;;;;;;2.25;1.88;;;;;;;7.24;85.43;92894.09;5092819;28;20053;-41
2021/10/16 02:56:21;;;;;;;3.33;2.10;;;;;;;7.27;85.17;92901.25;5092662;28;20165;-41
2021/10/16 02:58:47;;;;;;;0.98;0.88;;;;;;;7.22;85.07;92893.91;5092605;28;20089;-42
2021/10/16 03:01:12;;;;;;;2.72;2.03;;;;;;;7.07;85.00;92882.81;5092799;28;20082;-41
2021/10/16 03:03:37;;;;;;;5.15;3.08;;;;;;;7.17;85.19;92902.31;5092451;28;20035;-41
2021/10/16 03:06:03;;;;;;;13.13;10.40;;;;;;;7.22;85.06;92899.38;5092569;28;20073;-41
2021/10/16 03:08:28;;;;;;;5.25;4.22;;;;;;;7.20;84.74;92896.44;5092388;28;20040;-41
2021/10/16 03:10:54;;;;;;;2.50;1.63;;;;;;;7.18;84.83;92901.00;5092494;28;20035;-41
2021/10/16 03:13:19;;;;;;;2.03;1.55;;;;;;;7.15;85.61;92891.84;5092340;28;20028;-41
2021/10/16 03:15:45;;;;;;;0.60;0.60;;;;;;;7.11;85.76;92890.72;5092358;28;20028;-41
2021/10/16 03:18:10;;;;;;;3.15;1.63;;;;;;;6.98;86.05;92879.81;5091337;28;20032;-40
2021/10/16 03:20:35;;;;;;;7.93;5.18;;;;;;;7.11;85.81;92888.69;5092200;28;20024;-41
2021/10/16 03:23:01;;;;;;;3.15;2.55;;;;;;;7.17;85.63;92888.56;5092189;28;20036;-41
2021/10/16 03:25:27;;;;;;;6.10;4.00;;;;;;;7.12;85.64;92886.69;5092487;28;20027;-40
2021/10/16 03:27:52;;;;;;;3.97;2.90;;;;;;;7.12;85.74;92890.19;5092431;28;20032;-39
2021/10/16 03:30:18;;;;;;;2.20;2.00;;;;;;;7.15;86.08;92893.84;5092063;28;20016;-41
2021/10/16 03:32:43;;;;;;;4.97;3.42;;;;;;;7.14;85.84;92895.88;5094210;28;20059;-38
2021/10/16 03:35:08;;;;;;;3.15;2.10;;;;;;;7.21;85.93;92902.69;5101455;28;20104;-40
2021/10/16 03:37:34;;;;;;;3.13;1.80;;;;;;;7.22;85.77;92898.66;5102866;28;20030;-39
2021/10/16 03:39:59;;;;;;;4.57;2.70;;;;;;;7.13;85.55;92864.19;5101278;28;20028;-40
2021/10/16 03:42:25;;;;;;;6.50;3.22;;;;;;;7.30;85.57;92888.44;5095615;27;20123;-43
2021/10/16 03:44:50;;;;;;;7.57;6.82;;;;;;;7.25;85.71;92881.09;5092176;28;20102;-41
2021/10/16 03:47:16;;;;;;;2.90;1.65;;;;;;;7.22;85.71;92893.16;5112194;28;20031;-41
2021/10/16 03:49:41;;;;;;;1.20;1.08;;;;;;;7.29;85.24;92887.72;5112070;28;20027;-41
2021/10/16 03:52:06;;;;;;;0.98;0.70;;;;;;;7.28;85.30;92891.72;5112313;28;20031;-41
2021/10/16 03:54:32;;;;;;;2.85;2.13;;;;;;;7.29;85.84;92898.72;5112146;28;20080;-41
2021/10/16 03:56:57;;;;;;;3.42;2.60;;;;;;;7.25;85.92;92897.59;5111855;28;20076;-41
2021/10/16 03:59:24;;;;;;;2.67;2.28;;;;;;;7.24;86.60;92894.09;5111922;28;20055;-41
2021/10/16 04:01:49;;;;;;;2.00;1.17;;;;;;;7.20;86.57;92901.94;5112041;27;20609;-40
2021/10/16 04:04:14;;;;;;;1.85;1.42;;;;;;;7.19;87.51;92905.94;5112150;28;20027;-40
2021/10/16 04:06:40;;;;;;;1.83;1.02;;;;;;;7.16;87.31;92900.81;5112026;28;20058;-41
2021/10/16 04:09:05;;;;;;;6.25;3.80;;;;;;;7.26;87.19;92918.25;5112002;28;20059;-41
2021/10/16 04:11:31;;;;;;;2.55;2.30;;;;;;;7.29;86.74;92908.94;5111936;28;20034;-41
2021/10/16 04:13:56;;;;;;;3.33;2.00;;;;;;;7.19;86.83;92891.50;5111852;28;20404;-42
2021/10/16 04:16:22;;;;;;;3.72;2.85;;;;;;;7.28;86.48;92897.22;5110290;28;20024;-41
2021/10/16 04:18:47;;;;;;;10.32;6.00;;;;;;;7.42;85.94;92900.59;5110900;27;20034;-41
2021/10/16 04:21:13;;;;;;;6.95;4.90;;;;;;;7.43;85.40;92899.31;5111130;28;20024;-41
2021/10/16 04:23:38;;;;;;;7.28;4.90;;;;;;;7.45;85.67;92899.53;5094122;28;20718;-39
2021/10/16 04:26:04;;;;;;;7.18;4.30;;;;;;;7.41;85.91;92905.34;5090952;28;20020;-41
2021/10/16 04:28:29;;;;;;;3.25;1.48;;;;;;;7.35;85.81;92904.78;5090793;28;20028;-40
2021/10/16 04:30:54;;;;;;;7.43;4.05;;;;;;;7.35;86.49;92909.53;5104721;28;20080;-41
2021/10/16 04:33:20;;;;;;;7.55;4.32;;;;;;;7.35;86.65;92906.78;5111152;28;20027;-41
2021/10/16 04:35:45;;;;;;;5.05;3.00;;;;;;;7.36;86.31;92908.97;5111237;28;20042;-41
2021/10/16 04:38:11;;;;;;;6.53;3.45;;;;;;;7.42;86.29;92909.59;5111113;28;20020;-41
2021/10/16 04:40:37;;;;;;;4.63;3.70;;;;;;;7.48;86.19;92915.66;5111102;28;20028;-41
2021/10/16 04:43:05;;;;;;;2.28;1.65;;;;;;;7.51;86.20;92911.81;5111375;28;20059;-40
2021/10/16 04:45:32;;;;;;;9.40;5.43;;;;;;;7.50;86.00;92904.84;5104677;28;20501;-40
2021/10/16 04:47:59;;;;;;;13.02;11.02;;;;;;;7.46;85.93;92909.22;5090468;28;20501;-40
2021/10/16 04:50:24;;;;;;;2.30;2.10;;;;;;;7.40;84.96;92914.13;5089729;28;20042;-40
2021/10/16 04:52:50;;;;;;;0.88;0.88;;;;;;;7.46;85.82;92912.72;5090843;28;20057;-40
2021/10/16 04:55:15;;;;;;;0.60;0.60;;;;;;;7.50;85.86;92918.59;5090683;28;20394;-40
2021/10/16 04:57:40;;;;;;;0.50;0.50;;;;;;;7.56;85.77;92921.16;5089239;28;20032;-40
2021/10/16 05:00:07;;;;;;;0.70;0.60;;;;;;;7.52;86.14;92929.03;5090427;28;20085;-40
2021/10/16 05:02:33;;;;;;;0.68;0.68;;;;;;;7.51;86.07;92931.03;5090692;28;20485;-40
2021/10/16 05:04:58;;;;;;;1.25;0.75;;;;;;;7.49;85.87;92932.88;5090396;28;20035;-41
2021/10/16 05:07:24;;;;;;;1.48;1.23;;;;;;;7.49;85.96;92930.84;5090743;28;20023;-41
2021/10/16 05:09:49;;;;;;;5.85;3.63;;;;;;;7.42;86.72;92931.56;5090602;28;20100;-41
2021/10/16 05:12:16;;;;;;;12.80;3.88;;;;;;;7.41;86.99;92938.31;5090737;28;20042;-41
2021/10/16 05:14:41;;;;;;;27.38;15.15;;;;;;;7.40;87.94;92947.84;5090223;28;20494;-41
2021/10/16 05:17:07;;;;;;;14.55;6.43;;;;;;;7.46;87.61;92953.91;5090572;28;20031;-41
2021/10/16 05:19:32;;;;;;;11.27;5.72;;;;;;;7.57;86.98;92956.34;5090302;28;20077;-41
2021/10/16 05:21:58;;;;;;;7.90;4.43;;;;;;;7.56;86.79;92959.63;5090029;28;20013;-41
2021/10/16 05:24:23;;;;;;;13.15;7.30;;;;;;;7.62;86.65;92966.44;5090568;28;20027;-41
2021/10/16 05:26:49;;;;;;;4.40;2.55;;;;;;;7.68;86.05;92965.56;5101112;28;20389;-43
2021/10/16 05:29:14;;;;;;;4.75;2.90;;;;;;;7.70;85.99;92969.25;5110508;28;20043;-40
2021/10/16 05:31:40;;;;;;;2.45;1.95;;;;;;;7.73;85.48;92976.41;5110801;28;20019;-40
2021/10/16 05:34:05;;;;;;;5.97;3.75;;;;;;;7.72;85.46;92974.94;5110649;28;20497;-40
2021/10/16 05:36:30;;;;;;;14.27;8.30;;;;;;;7.69;85.29;92978.03;5110754;28;20020;-39
2021/10/16 05:38:56;;;;;;;19.88;10.77;;;;;;;7.72;86.03;92974.19;5110779;28;20473;-40
2021/10/16 05:41:21;;;;;;;7.60;3.90;;;;;;;7.72;85.95;92965.94;5113025;28;20115;-41
2021/10/16 05:43:47;;;;;;;4.10;2.72;;;;;;;7.74;86.10;92969.63;5114533;28;20015;-41
2021/10/16 05:46:12;;;;;;;16.42;9.05;;;;;;;7.83;86.36;92984.88;5102334;27;20028;-41
2021/10/16 05:48:38;;;;;;;3.20;2.38;;;;;;;7.83;85.50;92966.38;5093888;28;20047;-40
2021/10/16 05:51:03;;;;;;;4.40;2.40;;;;;;;7.89;85.83;92985.44;5094275;28;20055;-40
2021/10/16 05:53:29;;;;;;;1.95;1.75;;;;;;;7.95;84.74;92995.00;5094280;28;20046;-40
2021/10/16 05:55:54;;;;;;;1.77;1.40;;;;;;;7.95;85.20;92981.25;5094273;28;20019;-40
2021/10/16 05:58:20;;;;;;;1.90;1.80;;;;;;;7.94;84.79;92992.81;5094148;28;20031;-40
2021/10/16 06:00:45;;;;;;;1.80;1.52;;;;;;;8.00;85.22;93002.38;5094050;28;20024;-40
2021/10/16 06:03:10;;;;;;;2.75;2.20;;;;;;;7.97;85.09;92997.94;5094063;28;20121;-40
2021/10/16 06:05:37;;;;;;;4.07;3.67;;;;;;;8.03;85.28;92998.56;5094045;28;20097;-40
2021/10/16 06:08:03;;;;;;;2.35;2.15;;;;;;;7.96;85.00;92988.25;5093964;28;20120;-40
2021/10/16 06:10:29;;;;;;;1.85;1.75;;;;;;;8.03;85.19;93006.06;5093639;28;20262;-40
2021/10/16 06:12:54;;;;;;;2.25;1.67;;;;;;;8.09;85.62;93004.63;5093656;28;20046;-40
2021/10/16 06:15:20;;;;;;;3.03;2.67;;;;;;;8.13;85.40;93010.50;5093539;28;20020;-40
2021/10/16 06:17:45;;;;;;;4.50;2.50;;;;;;;8.16;85.15;93012.16;5093566;28;20020;-40
2021/10/16 06:20:11;;;;;;;8.07;5.00;;;;;;;8.23;85.56;93018.94;5093653;28;20016;-39
2021/10/16 06:22:37;;;;;;;17.27;10.50;;;;;;;8.19;84.92;93018.56;5100294;28;20030;-40
2021/10/16 06:25:03;;;;;;;8.85;5.78;;;;;;;8.22;84.77;93018.25;5113846;28;20024;-39
2021/10/16 06:27:28;;;;;;;4.15;3.17;;;;;;;8.28;85.45;93031.84;5113964;28;20024;-40
2021/10/16 06:29:54;;;;;;;4.68;2.78;;;;;;;8.35;84.42;93028.41;5113903;28;20028;-40
2021/10/16 06:32:19;;;;;;;4.93;3.85;;;;;;;8.41;84.58;93034.47;5113894;28;20397;-40
2021/10/16 06:34:45;;;;;;;9.25;6.28;;;;;;;8.48;84.44;93024.78;5113550;28;20102;-40
2021/10/16 06:37:11;;;;;;;5.90;4.05;;;;;;;8.51;84.21;93029.19;5113780;28;20035;-40
2021/10/16 06:39:36;;;;;;;1.23;1.05;;;;;;;8.39;83.89;93032.28;5113689;28;20051;-40
2021/10/16 06:42:01;;;;;;;3.08;2.38;;;;;;;8.48;84.06;93041.28;5113610;28;20026;-40
2021/10/16 06:44:27;;;;;;;3.83;2.33;;;;;;;8.48;84.04;93044.78;5111458;28;20031;-40
2021/10/16 06:46:52;;;;;;;2.70;2.10;;;;;;;8.64;84.52;93053.81;5104163;28;20027;-40
2021/10/16 07:00:52;;;;;;;5.65;3.42;;;;;;;9.78;78.24;93078.19;5063874;28;21250;-40
2021/10/16 07:03:18;;;;;;;3.50;2.60;;;;;;;9.76;78.19;93077.28;5061572;28;20132;-41
2021/10/16 07:05:43;;;;;;;2.78;1.50;;;;;;;9.71;78.31;93084.44;5061602;27;20019;-41
2021/10/16 07:08:09;;;;;;;1.33;1.23;;;;;;;9.51;77.71;93084.63;5045720;27;20493;-41
2021/10/16 07:10:37;;;;;;;2.30;2.10;;;;;;;9.43;79.01;93087.38;5044000;28;20028;-41
2021/10/16 07:13:03;;;;;;;3.85;2.67;;;;;;;9.32;79.34;93095.25;5043820;28;20112;-41
2021/10/16 07:15:29;;;;;;;7.10;2.97;;;;;;;9.29;80.15;93088.09;5044020;28;20112;-41
2021/10/16 07:17:55;;;;;;;4.60;2.38;;;;;;;9.26;80.58;93091.94;5043704;28;20158;-41
2021/10/16 07:20:20;;;;;;;4.38;2.75;;;;;;;9.22;81.24;93095.06;5043658;28;20052;-40
2021/10/16 07:22:46;;;;;;;4.43;1.48;;;;;;;9.10;81.43;93091.91;5033685;28;20025;-41
2021/10/16 07:25:11;;;;;;;15.18;3.55;;;;;;;9.08;81.47;93096.50;5036899;27;20024;-40
2021/10/16 07:27:37;;;;;;;2.90;2.70;;;;;;;9.07;82.03;93098.50;5043579;28;20025;-41
2021/10/16 07:30:03;;;;;;;3.70;2.92;;;;;;;9.03;81.99;93098.13;5043781;28;20036;-40
2021/10/16 07:32:28;;;;;;;2.72;1.65;;;;;;;8.98;82.44;93093.56;5043659;28;20078;-41
2021/10/16 07:34:54;;;;;;;4.13;2.20;;;;;;;9.09;82.16;93100.75;5043741;28;20013;-40
2021/10/16 07:37:19;;;;;;;4.47;2.10;;;;;;;9.15;81.80;93096.53;5043651;28;20098;-41
2021/10/16 07:39:45;;;;;;;2.35;1.60;;;;;;;9.16;81.24;93094.50;5043629;28;20092;-41
2021/10/16 07:42:10;;;;;;;7.72;4.57;;;;;;;9.26;81.64;93094.69;5043403;28;20443;-40
2021/10/16 07:44:36;;;;;;;9.82;4.82;;;;;;;9.36;81.37;93096.38;5043528;28;20629;-41
2021/10/16 07:47:01;;;;;;;2.45;1.35;;;;;;;9.40;80.52;93099.50;5043524;28;20025;-42
2021/10/16 07:49:26;;;;;;;1.30;1.10;;;;;;;9.46;80.53;93088.31;5043360;28;20025;-42
2021/10/16 07:51:52;;;;;;;2.42;2.13;;;;;;;9.66;81.17;93095.66;5043137;28;20025;-41
2021/10/16 07:54:18;;;;;;;6.97;3.50;;;;;;;9.67;79.24;93103.38;5043117;28;20036;-42
2021/10/16 07:56:44;;;;;;;3.40;2.03;;;;;;;9.75;79.06;93108.88;5043417;28;20029;-41
2021/10/16 07:59:09;;;;;;;2.58;1.90;;;;;;;9.67;79.14;93097.13;5042586;27;20110;-41
2021/10/16 08:01:35;;;;;;;4.50;2.13;;;;;;;9.57;79.46;93083.16;5031421;28;20021;-41
2021/10/16 08:04:00;;;;;;;3.30;1.40;;;;;;;9.74;78.70;93101.91;5029353;28;20036;-41
2021/10/16 08:06:26;;;;;;;3.70;2.08;;;;;;;9.83;78.42;93106.88;5012976;28;20075;-39
2021/10/16 08:08:52;;;;;;;2.60;1.73;;;;;;;9.88;78.28;93112.19;5007555;28;20026;-39
2021/10/16 08:11:17;;;;;;;3.15;1.80;;;;;;;9.94;78.33;93112.00;5006270;28;20030;-39
2021/10/16 08:13:43;;;;;;;14.30;7.50;;;;;;;10.06;78.16;93121.38;5007811;28;20025;-39
2021/10/16 08:16:08;;;;;;;6.45;4.28;;;;;;;10.16;77.75;93114.03;5007683;28;20494;-40
2021/10/16 08:18:34;;;;;;;9.70;6.53;;;;;;;10.30;78.47;93112.53;5007951;28;20478;-40
2021/10/16 08:21:00;;;;;;;5.57;4.45;;;;;;;10.36;77.84;93112.34;5008030;28;20025;-40
2021/10/16 08:23:25;;;;;;;7.55;6.93;;;;;;;10.40;77.28;93113.44;5007500;28;20037;-40
2021/10/16 08:25:51;;;;;;;5.10;3.92;;;;;;;10.40;76.30;93102.38;5007686;28;20079;-40
2021/10/16 08:28:16;;;;;;;7.85;3.55;;;;;;;10.44;75.38;93093.72;5007271;28;20793;-40
2021/10/16 08:30:49;;;;;;;5.25;2.75;;;;;;;10.68;75.63;93115.19;5007527;28;20029;-41
2021/10/16 08:33:16;;;;;;;3.28;2.40;;;;;;;10.76;74.21;93123.47;5007665;28;20035;-39
2021/10/16 08:35:42;;;;;;;3.30;2.53;;;;;;;10.87;74.84;93118.25;5007414;28;20036;-40
2021/10/16 08:38:07;;;;;;;2.25;1.33;;;;;;;10.97;73.67;93121.16;5007365;28;20048;-40
2021/10/16 08:40:32;;;;;;;2.53;1.55;;;;;;;11.08;73.55;93135.28;5007245;28;20030;-39
2021/10/16 08:42:58;;;;;;;1.88;1.08;;;;;;;11.06;73.48;93131.63;5007478;28;20676;-39
2021/10/16 08:45:23;;;;;;;3.78;2.25;;;;;;;10.97;73.16;93126.69;5006567;28;20037;-39
2021/10/16 08:47:49;;;;;;;2.00;1.40;;;;;;;10.89;73.58;93126.72;5007453;28;20037;-40
2021/10/16 08:50:15;;;;;;;0.95;0.80;;;;;;;10.73;73.48;93125.31;5004928;28;20028;-39
2021/10/16 08:52:40;;;;;;;1.08;1.00;;;;;;;10.64;74.68;93123.13;5006746;28;20029;-40
2021/10/16 08:55:08;;;;;;;1.73;1.02;;;;;;;10.59;75.39;93119.25;5007295;28;20026;-40
2021/10/16 08:57:35;;;;;;;3.55;1.92;;;;;;;10.54;75.50;93102.91;5011601;28;20596;-40
2021/10/16 09:00:39;;;;;;;2.85;1.92;;;;;;;10.79;76.04;93125.09;5026467;28;20050;-40
2021/10/16 09:03:19;;;;;;;2.47;2.00;;;;;;;10.93;74.54;93129.09;5026837;28;20034;-40
2021/10/16 09:06:07;;;;;;;5.72;3.47;;;;;;;11.01;74.83;93133.28;5026357;28;20166;-40
2021/10/16 09:09:12;;;;;;;6.00;3.88;;;;;;;10.90;74.71;93130.19;5026587;28;20037;-40
2021/10/16 09:11:47;;;;;;;4.68;2.78;;;;;;;10.80;75.31;93141.13;5046881;28;20038;-40
2021/10/16 09:14:16;;;;;;;6.18;2.22;;;;;;;10.95;75.67;93143.09;5026647;28;20104;-40
2021/10/16 09:16:41;;;;;;;;;;;;;;;10.93;74.82;93131.84;5017709;28;20090;-40
2021/10/16 09:19:14;;;;;;;1.63;1.30;;;;;;;10.91;73.99;93148.25;5015793;28;19917;-40
2021/10/16 09:21:46;;;;;;;0.98;0.93;;;;;;;11.13;74.52;93139.16;5016595;28;20095;-40
2021/10/16 09:24:13;;;;;;;0.90;0.80;;;;;;;11.57;74.37;93144.97;5015474;28;20074;-40
2021/10/16 09:26:41;;;;;;;2.20;1.52;;;;;;;12.08;71.74;93148.66;5015918;28;20121;-40
2021/10/16 09:29:08;;;;;;;2.63;2.00;;;;;;;13.22;69.32;93139.97;5018512;28;20044;-40
2021/10/16 09:31:42;;;;;;;2.92;1.60;;;;;;;13.99;65.90;93143.88;5018612;28;20221;-40
2021/10/16 09:34:08;;;;;;;9.18;4.35;;;;;;;14.12;63.53;93149.03;5020991;28;20546;-40
2021/10/16 09:36:34;;;;;;;3.58;2.40;;;;;;;13.93;62.88;93156.56;5019679;28;20025;-40
2021/10/16 09:39:00;;;;;;;2.45;1.60;;;;;;;13.65;64.51;93157.88;5016167;28;20029;-40
2021/10/16 09:41:33;;;;;;;3.55;2.22;;;;;;;13.34;65.37;93152.00;5014026;28;20026;-40
2021/10/16 09:43:58;;;;;;;7.40;4.15;;;;;;;13.37;66.01;93166.75;5014036;28;20494;-40
2021/10/16 09:46:24;;;;;;;8.32;5.95;;;;;;;14.17;64.92;93161.19;5016182;28;20029;-40
2021/10/16 09:59:26;;;;;;;1.70;1.60;;;;;;;19.06;49.69;93154.47;5126053;27;20629;-41
2021/10/16 10:01:52;;;;;;;1.83;1.33;;;;;;;18.96;47.80;93160.19;5125882;27;20027;-41
2021/10/16 10:04:20;;;;;;;3.60;2.60;;;;;;;18.26;49.76;93165.06;5125858;27;20023;-41
2021/10/16 10:06:46;;;;;;;2.45;1.60;;;;;;;17.56;49.73;93169.75;5104170;28;20516;-41
2021/10/16 10:09:12;;;;;;;1.38;1.27;;;;;;;17.51;52.18;93156.13;5104943;28;20055;-41
2021/10/16 10:11:38;;;;;;;1.33;1.05;;;;;;;17.58;52.20;93163.56;5104504;28;20571;-40
2021/10/16 10:14:04;;;;;;;1.00;0.60;;;;;;;17.18;51.97;93159.63;5102902;28;20016;-41
2021/10/16 10:16:32;;;;;;;0.57;0.43;;;;;;;16.40;54.62;93157.16;5103675;28;20579;-41
2021/10/16 10:19:00;;;;;;;0.70;0.65;;;;;;;15.93;55.74;93169.94;5102819;28;20032;-40
2021/10/16 10:21:34;;;;;;;1.13;0.43;;;;;;;15.74;56.75;93161.66;5106921;28;20031;-40
2021/10/16 10:24:00;;;;;;;2.15;0.55;;;;;;;15.71;57.04;93173.94;5121955;28;20028;-41
2021/10/16 10:26:32;;;;;;;0.90;0.70;;;;;;;15.54;56.88;93176.91;5111521;27;20061;-41
2021/10/16 10:28:59;;;;;;;1.25;1.13;;;;;;;15.31;57.46;93173.84;5113997;28;20023;-40
2021/10/16 10:31:44;;;;;;;0.63;0.52;;;;;;;14.82;58.50;93167.50;5117044;28;20057;-40
2021/10/16 10:34:29;;;;;;;0.82;0.63;;;;;;;14.65;60.00;93181.53;5114583;28;20046;-41
2021/10/16 10:37:08;;;;;;;2.08;1.60;;;;;;;14.54;60.23;93184.88;5125243;27;20501;-40
2021/10/16 10:39:33;;;;;;;1.02;0.40;;;;;;;14.13;59.93;93192.16;5125702;27;20094;-40
2021/10/16 10:41:59;;;;;;;1.05;0.85;;;;;;;13.91;62.11;93184.16;5125378;27;20110;-40
2021/10/16 10:44:44;;;;;;;14.82;7.28;;;;;;;13.97;61.48;93181.88;5126089;27;20019;-40
2021/10/16 10:47:25;;;;;;;4.03;2.83;;;;;;;14.09;62.18;93172.44;5105193;27;20036;-40
2021/10/16 10:49:53;;;;;;;2.97;1.60;;;;;;;13.96;61.47;93177.63;5104974;28;20035;-40
2021/10/16 10:52:28;;;;;;;1.92;1.30;;;;;;;14.02;61.72;93189.91;5104591;28;20024;-40
2021/10/16 10:55:05;;;;;;;4.60;3.08;;;;;;;13.77;61.54;93185.84;5104592;28;20024;-40
2021/10/16 10:57:48;;;;;;;3.17;1.73;;;;;;;13.81;62.71;93191.72;5104229;28;20072;-40
2021/10/16 11:00:37;;;;;;;2.35;1.65;;;;;;;13.99;62.68;93177.19;5092190;28;20047;-41
2021/10/16 11:03:27;;;;;;;4.60;2.42;;;;;;;13.90;61.63;93188.25;5090896;28;20496;-40
2021/10/16 11:06:17;;;;;;;1.63;1.48;;;;;;;13.83;62.08;93189.81;5090974;28;20024;-40
2021/10/16 11:08:44;;;;;;;1.45;0.95;;;;;;;13.76;61.04;93190.66;5090103;28;20028;-41
2021/10/16 11:11:09;;;;;;;2.10;1.35;;;;;;;13.50;62.49;93181.03;5091504;28;20102;-40
2021/10/16 11:13:35;;;;;;;2.42;1.80;;;;;;;13.64;61.76;93195.28;5091351;28;20050;-40
2021/10/16 11:16:05;;;;;;;3.30;1.25;;;;;;;13.65;62.33;93185.63;5091309;28;20019;-40
2021/10/16 11:18:31;;;;;;;0.85;0.85;;;;;;;13.46;60.45;93186.25;5106944;28;20110;-41
2021/10/16 11:21:10;;;;;;;0.75;0.60;;;;;;;13.21;60.62;93193.22;5110954;28;20036;-40
2021/10/16 11:23:38;;;;;;;4.20;1.40;;;;;;;13.16;62.48;93189.41;5111215;28;20032;-40
2021/10/16 11:26:12;;;;;;;4.88;3.05;;;;;;;13.30;63.37;93190.50;5110848;28;20088;-41
2021/10/16 11:28:39;;;;;;;5.57;4.28;;;;;;;13.03;61.17;93191.72;5111091;28;20080;-41
2021/10/16 11:31:07;;;;;;;2.65;1.90;;;;;;;12.89;62.25;93191.31;5110700;28;20115;-41
2021/10/16 11:33:40;;;;;;;1.25;1.15;;;;;;;12.41;63.58;93198.44;5111215;28;20100;-40
2021/10/16 11:36:08;;;;;;;1.73;1.15;;;;;;;12.48;64.46;93198.34;5110905;28;20031;-40
2021/10/16 11:38:38;;;;;;;2.72;1.33;;;;;;;12.46;64.75;93191.91;5111469;28;20020;-40
2021/10/16 11:41:05;;;;;;;9.13;2.33;;;;;;;12.36;65.42;93188.31;5111449;28;20123;-40
2021/10/16 11:43:30;;;;;;;5.07;3.90;;;;;;;12.56;66.12;93192.75;5110612;28;20031;-40
2021/10/16 11:45:56;;;;;;;7.07;5.22;;;;;;;12.60;64.59;93190.31;5110934;28;20039;-40
2021/10/16 11:48:25;;;;;;;5.28;3.97;;;;;;;12.70;64.56;93191.13;5110213;28;20492;-40
2021/10/16 11:50:56;;;;;;;3.90;3.25;;;;;;;12.57;64.49;93188.69;5109891;28;20051;-40
2021/10/16 11:53:24;;;;;;;4.90;1.20;;;;;;;12.39;65.26;93193.44;5097264;28;20040;-40
2021/10/16 11:56:06;;;;;;;5.30;3.65;;;;;;;12.34;65.50;93194.44;5102237;28;20511;-40
2021/10/16 11:58:32;;;;;;;2.60;2.35;;;;;;;12.02;66.78;93197.25;5110135;28;20444;-40
2021/10/16 12:00:59;;;;;;;4.93;2.65;;;;;;;12.14;67.76;93209.34;5110472;28;20122;-40